sensor_id;sensor_type;location;lat;lon;timestamp;temperature;humidity
32348;DHT22;18821;44.800;10.326;2023-05-10T00:00:54;15.20;86.10
32348;DHT22;18821;44.800;10.326;2023-05-10T00:03:20;14.90;92.00
32348;DHT22;18821;44.800;10.326;2023-05-10T00:05:46;14.80;94.30
32348;DHT22;18821;44.800;10.326;2023-05-10T00:08:12;14.70;96.70
32348;DHT22;18821;44.800;10.326;2023-05-10T00:10:38;14.80;98.00
32348;DHT22;18821;44.800;10.326;2023-05-10T00:13:04;14.90;99.20
32348;DHT22;18821;44.800;10.326;2023-05-10T00:15:29;15.00;99.90
32348;DHT22;18821;44.800;10.326;2023-05-10T00:18:00;15.00;98.10
32348;DHT22;18821;44.800;10.326;2023-05-10T00:20:26;14.90;93.60
32348;DHT22;18821;44.800;10.326;2023-05-10T00:22:52;14.80;95.90
32348;DHT22;18821;44.800;10.326;2023-05-10T00:25:18;14.70;98.30
32348;DHT22;18821;44.800;10.326;2023-05-10T00:27:44;14.80;99.90
32348;DHT22;18821;44.800;10.326;2023-05-10T00:30:10;14.90;99.90
32348;DHT22;18821;44.800;10.326;2023-05-10T00:32:36;14.90;99.90
32348;DHT22;18821;44.800;10.326;2023-05-10T00:35:02;15.00;99.90
32348;DHT22;18821;44.800;10.326;2023-05-10T00:37:28;14.90;99.70
32348;DHT22;18821;44.800;10.326;2023-05-10T00:39:54;14.80;99.90
32348;DHT22;18821;44.800;10.326;2023-05-10T00:42:20;14.70;99.90
32348;DHT22;18821;44.800;10.326;2023-05-10T00:44:46;14.80;99.90
32348;DHT22;18821;44.800;10.326;2023-05-10T00:47:12;14.80;99.90
32348;DHT22;18821;44.800;10.326;2023-05-10T00:49:38;14.80;99.90
32348;DHT22;18821;44.800;10.326;2023-05-10T00:52:05;14.90;99.90
32348;DHT22;18821;44.800;10.326;2023-05-10T00:54:31;14.90;99.90
32348;DHT22;18821;44.800;10.326;2023-05-10T00:56:57;14.90;99.90
32348;DHT22;18821;44.800;10.326;2023-05-10T00:59:24;14.90;99.90
32348;DHT22;18821;44.800;10.326;2023-05-10T01:01:50;14.90;99.90
32348;DHT22;18821;44.800;10.326;2023-05-10T01:04:18;14.80;99.90
32348;DHT22;18821;44.800;10.326;2023-05-10T01:06:45;14.90;99.90
32348;DHT22;18821;44.800;10.326;2023-05-10T01:09:11;14.90;99.90
32348;DHT22;18821;44.800;10.326;2023-05-10T01:11:38;14.90;99.90
32348;DHT22;18821;44.800;10.326;2023-05-10T01:14:05;14.90;99.90
32348;DHT22;18821;44.800;10.326;2023-05-10T01:16:39;14.90;99.90
32348;DHT22;18821;44.800;10.326;2023-05-10T01:19:19;14.90;99.90
32348;DHT22;18821;44.800;10.326;2023-05-10T01:24:40;14.90;99.90
32348;DHT22;18821;44.800;10.326;2023-05-10T01:41:03;14.70;99.90
32348;DHT22;18821;44.800;10.326;2023-05-10T01:43:42;14.80;99.90
32348;DHT22;18821;44.800;10.326;2023-05-10T01:46:14;14.80;99.90
32348;DHT22;18821;44.800;10.326;2023-05-10T01:48:52;14.80;99.90
32348;DHT22;18821;44.800;10.326;2023-05-10T01:51:23;14.80;99.90
32348;DHT22;18821;44.800;10.326;2023-05-10T01:53:53;14.80;99.90
32348;DHT22;18821;44.800;10.326;2023-05-10T01:56:24;14.80;99.90
32348;DHT22;18821;44.800;10.326;2023-05-10T01:58:52;14.80;99.90
32348;DHT22;18821;44.800;10.326;2023-05-10T02:01:20;14.80;99.90
32348;DHT22;18821;44.800;10.326;2023-05-10T02:03:48;14.80;99.90
32348;DHT22;18821;44.800;10.326;2023-05-10T02:06:16;14.70;99.90
32348;DHT22;18821;44.800;10.326;2023-05-10T02:08:45;14.80;99.90
32348;DHT22;18821;44.800;10.326;2023-05-10T02:11:15;14.70;99.90
32348;DHT22;18821;44.800;10.326;2023-05-10T02:13:43;14.70;99.90
32348;DHT22;18821;44.800;10.326;2023-05-10T02:16:11;14.60;99.90
32348;DHT22;18821;44.800;10.326;2023-05-10T02:18:40;14.60;99.90
32348;DHT22;18821;44.800;10.326;2023-05-10T02:21:08;14.60;99.90
32348;DHT22;18821;44.800;10.326;2023-05-10T02:23:37;14.60;99.90
32348;DHT22;18821;44.800;10.326;2023-05-10T02:26:04;14.70;99.90
32348;DHT22;18821;44.800;10.326;2023-05-10T02:28:32;14.60;99.90
32348;DHT22;18821;44.800;10.326;2023-05-10T02:30:59;14.60;99.90
32348;DHT22;18821;44.800;10.326;2023-05-10T02:33:26;14.60;99.90
32348;DHT22;18821;44.800;10.326;2023-05-10T02:35:53;14.60;99.90
32348;DHT22;18821;44.800;10.326;2023-05-10T02:38:20;14.60;99.90
32348;DHT22;18821;44.800;10.326;2023-05-10T02:40:47;14.60;99.90
32348;DHT22;18821;44.800;10.326;2023-05-10T02:43:16;14.50;99.90
32348;DHT22;18821;44.800;10.326;2023-05-10T02:45:43;14.50;99.90
32348;DHT22;18821;44.800;10.326;2023-05-10T02:48:12;14.50;99.90
32348;DHT22;18821;44.800;10.326;2023-05-10T02:50:45;14.50;99.90
32348;DHT22;18821;44.800;10.326;2023-05-10T02:53:22;14.40;99.90
32348;DHT22;18821;44.800;10.326;2023-05-10T02:55:50;14.40;99.90
32348;DHT22;18821;44.800;10.326;2023-05-10T02:58:17;14.30;99.90
32348;DHT22;18821;44.800;10.326;2023-05-10T03:00:45;14.30;99.90
32348;DHT22;18821;44.800;10.326;2023-05-10T03:03:12;14.30;99.90
32348;DHT22;18821;44.800;10.326;2023-05-10T03:05:38;14.20;99.90
32348;DHT22;18821;44.800;10.326;2023-05-10T03:08:04;14.30;99.90
32348;DHT22;18821;44.800;10.326;2023-05-10T03:10:32;14.20;99.90
32348;DHT22;18821;44.800;10.326;2023-05-10T03:13:28;14.10;99.90
32348;DHT22;18821;44.800;10.326;2023-05-10T03:15:58;14.10;99.90
32348;DHT22;18821;44.800;10.326;2023-05-10T03:18:50;14.10;99.90
32348;DHT22;18821;44.800;10.326;2023-05-10T03:21:22;14.10;99.90
32348;DHT22;18821;44.800;10.326;2023-05-10T03:23:59;14.10;99.90
32348;DHT22;18821;44.800;10.326;2023-05-10T03:26:29;14.10;99.90
32348;DHT22;18821;44.800;10.326;2023-05-10T03:29:13;14.10;99.90
32348;DHT22;18821;44.800;10.326;2023-05-10T03:31:39;14.10;99.90
32348;DHT22;18821;44.800;10.326;2023-05-10T03:34:05;14.00;99.90
32348;DHT22;18821;44.800;10.326;2023-05-10T03:36:32;14.00;99.90
32348;DHT22;18821;44.800;10.326;2023-05-10T03:38:59;14.00;99.90
32348;DHT22;18821;44.800;10.326;2023-05-10T03:41:25;14.00;99.90
32348;DHT22;18821;44.800;10.326;2023-05-10T03:43:51;14.10;99.90
32348;DHT22;18821;44.800;10.326;2023-05-10T03:46:17;14.10;99.90
32348;DHT22;18821;44.800;10.326;2023-05-10T03:48:44;14.10;99.90
32348;DHT22;18821;44.800;10.326;2023-05-10T03:51:10;14.10;99.90
32348;DHT22;18821;44.800;10.326;2023-05-10T03:53:36;14.00;99.90
32348;DHT22;18821;44.800;10.326;2023-05-10T03:56:02;14.00;99.90
32348;DHT22;18821;44.800;10.326;2023-05-10T03:58:28;14.00;99.90
32348;DHT22;18821;44.800;10.326;2023-05-10T04:00:54;13.90;99.90
32348;DHT22;18821;44.800;10.326;2023-05-10T04:03:20;13.90;99.90
32348;DHT22;18821;44.800;10.326;2023-05-10T04:05:46;13.90;99.90
32348;DHT22;18821;44.800;10.326;2023-05-10T04:08:12;13.90;99.90
32348;DHT22;18821;44.800;10.326;2023-05-10T04:10:38;13.90;99.90
32348;DHT22;18821;44.800;10.326;2023-05-10T04:13:04;13.80;99.90
32348;DHT22;18821;44.800;10.326;2023-05-10T04:15:30;13.80;99.90
32348;DHT22;18821;44.800;10.326;2023-05-10T04:17:55;13.80;99.90
32348;DHT22;18821;44.800;10.326;2023-05-10T04:20:21;13.80;99.90
32348;DHT22;18821;44.800;10.326;2023-05-10T04:22:47;13.80;99.90
32348;DHT22;18821;44.800;10.326;2023-05-10T04:25:13;13.80;99.90
32348;DHT22;18821;44.800;10.326;2023-05-10T04:27:39;13.80;99.90
32348;DHT22;18821;44.800;10.326;2023-05-10T04:30:05;13.80;99.90
32348;DHT22;18821;44.800;10.326;2023-05-10T04:32:32;13.80;99.90
32348;DHT22;18821;44.800;10.326;2023-05-10T04:34:58;13.80;99.90
32348;DHT22;18821;44.800;10.326;2023-05-10T04:37:24;13.80;99.90
32348;DHT22;18821;44.800;10.326;2023-05-10T04:39:50;13.70;99.90
32348;DHT22;18821;44.800;10.326;2023-05-10T04:42:16;13.70;99.90
32348;DHT22;18821;44.800;10.326;2023-05-10T04:44:42;13.80;99.90
32348;DHT22;18821;44.800;10.326;2023-05-10T04:47:08;13.80;99.90
32348;DHT22;18821;44.800;10.326;2023-05-10T04:49:33;13.70;99.90
32348;DHT22;18821;44.800;10.326;2023-05-10T04:51:59;13.80;99.90
32348;DHT22;18821;44.800;10.326;2023-05-10T04:54:25;13.80;99.90
32348;DHT22;18821;44.800;10.326;2023-05-10T04:56:51;13.90;99.90
32348;DHT22;18821;44.800;10.326;2023-05-10T04:59:17;13.90;99.90
32348;DHT22;18821;44.800;10.326;2023-05-10T05:01:43;13.90;99.90
32348;DHT22;18821;44.800;10.326;2023-05-10T05:04:08;13.90;99.90
32348;DHT22;18821;44.800;10.326;2023-05-10T05:06:34;13.80;99.90
32348;DHT22;18821;44.800;10.326;2023-05-10T05:09:00;13.90;99.90
32348;DHT22;18821;44.800;10.326;2023-05-10T05:11:26;13.90;99.90
32348;DHT22;18821;44.800;10.326;2023-05-10T05:13:52;13.90;99.90
32348;DHT22;18821;44.800;10.326;2023-05-10T05:16:18;13.90;99.90
32348;DHT22;18821;44.800;10.326;2023-05-10T05:18:44;13.90;99.90
32348;DHT22;18821;44.800;10.326;2023-05-10T05:21:14;13.90;99.90
32348;DHT22;18821;44.800;10.326;2023-05-10T05:23:41;13.90;99.90
32348;DHT22;18821;44.800;10.326;2023-05-10T05:26:07;13.80;99.90
32348;DHT22;18821;44.800;10.326;2023-05-10T05:28:34;13.70;99.90
32348;DHT22;18821;44.800;10.326;2023-05-10T05:31:06;13.60;99.90
32348;DHT22;18821;44.800;10.326;2023-05-10T05:33:33;13.50;99.90
32348;DHT22;18821;44.800;10.326;2023-05-10T05:36:04;13.50;99.90
32348;DHT22;18821;44.800;10.326;2023-05-10T05:38:30;13.30;99.90
32348;DHT22;18821;44.800;10.326;2023-05-10T05:40:57;13.20;99.90
32348;DHT22;18821;44.800;10.326;2023-05-10T05:43:23;13.30;99.90
32348;DHT22;18821;44.800;10.326;2023-05-10T05:45:49;13.30;99.90
32348;DHT22;18821;44.800;10.326;2023-05-10T05:48:14;13.20;99.90
32348;DHT22;18821;44.800;10.326;2023-05-10T05:50:40;13.20;99.90
32348;DHT22;18821;44.800;10.326;2023-05-10T05:53:06;13.20;99.90
32348;DHT22;18821;44.800;10.326;2023-05-10T05:55:32;13.20;99.90
32348;DHT22;18821;44.800;10.326;2023-05-10T05:57:58;13.20;99.90
32348;DHT22;18821;44.800;10.326;2023-05-10T06:00:24;13.00;99.90
32348;DHT22;18821;44.800;10.326;2023-05-10T06:02:50;13.00;99.90
32348;DHT22;18821;44.800;10.326;2023-05-10T06:05:16;13.10;99.90
32348;DHT22;18821;44.800;10.326;2023-05-10T06:07:42;13.10;99.90
32348;DHT22;18821;44.800;10.326;2023-05-10T06:10:08;13.10;99.90
32348;DHT22;18821;44.800;10.326;2023-05-10T06:12:35;13.00;99.90
32348;DHT22;18821;44.800;10.326;2023-05-10T06:15:01;13.00;99.90
32348;DHT22;18821;44.800;10.326;2023-05-10T06:17:29;13.00;99.90
32348;DHT22;18821;44.800;10.326;2023-05-10T06:19:55;13.00;99.90
32348;DHT22;18821;44.800;10.326;2023-05-10T06:22:21;13.00;99.90
32348;DHT22;18821;44.800;10.326;2023-05-10T06:24:49;13.10;99.90
32348;DHT22;18821;44.800;10.326;2023-05-10T06:27:15;13.10;99.90
32348;DHT22;18821;44.800;10.326;2023-05-10T06:29:41;13.10;99.90
32348;DHT22;18821;44.800;10.326;2023-05-10T06:32:07;13.10;99.90
32348;DHT22;18821;44.800;10.326;2023-05-10T06:34:33;13.10;99.90
32348;DHT22;18821;44.800;10.326;2023-05-10T06:36:58;13.10;99.90
32348;DHT22;18821;44.800;10.326;2023-05-10T06:39:24;13.10;99.90
32348;DHT22;18821;44.800;10.326;2023-05-10T06:41:50;13.00;99.90
32348;DHT22;18821;44.800;10.326;2023-05-10T06:44:18;13.00;99.90
32348;DHT22;18821;44.800;10.326;2023-05-10T06:46:44;13.00;99.90
32348;DHT22;18821;44.800;10.326;2023-05-10T06:49:10;13.00;99.90
32348;DHT22;18821;44.800;10.326;2023-05-10T06:51:35;13.00;99.90
32348;DHT22;18821;44.800;10.326;2023-05-10T06:54:01;12.90;99.90
32348;DHT22;18821;44.800;10.326;2023-05-10T06:56:27;12.80;99.90
32348;DHT22;18821;44.800;10.326;2023-05-10T06:58:53;12.80;99.90
32348;DHT22;18821;44.800;10.326;2023-05-10T07:01:19;12.70;99.90
32348;DHT22;18821;44.800;10.326;2023-05-10T07:03:45;12.60;99.90
32348;DHT22;18821;44.800;10.326;2023-05-10T07:06:10;12.70;99.90
32348;DHT22;18821;44.800;10.326;2023-05-10T07:08:36;12.70;99.90
32348;DHT22;18821;44.800;10.326;2023-05-10T07:11:03;12.60;99.90
32348;DHT22;18821;44.800;10.326;2023-05-10T07:13:33;12.50;99.90
32348;DHT22;18821;44.800;10.326;2023-05-10T07:16:00;12.60;99.90
32348;DHT22;18821;44.800;10.326;2023-05-10T07:18:26;12.60;99.90
32348;DHT22;18821;44.800;10.326;2023-05-10T07:20:52;12.60;99.90
32348;DHT22;18821;44.800;10.326;2023-05-10T07:23:18;12.60;99.90
32348;DHT22;18821;44.800;10.326;2023-05-10T07:25:48;12.50;99.90
32348;DHT22;18821;44.800;10.326;2023-05-10T07:28:15;12.60;99.90
32348;DHT22;18821;44.800;10.326;2023-05-10T07:30:42;12.50;99.90
32348;DHT22;18821;44.800;10.326;2023-05-10T07:33:09;12.50;99.90
32348;DHT22;18821;44.800;10.326;2023-05-10T07:35:35;12.50;99.90
32348;DHT22;18821;44.800;10.326;2023-05-10T07:38:01;12.40;99.90
32348;DHT22;18821;44.800;10.326;2023-05-10T07:40:28;12.30;99.90
32348;DHT22;18821;44.800;10.326;2023-05-10T07:42:54;12.10;99.90
32348;DHT22;18821;44.800;10.326;2023-05-10T07:45:20;12.10;99.90
32348;DHT22;18821;44.800;10.326;2023-05-10T07:47:46;12.10;99.90
32348;DHT22;18821;44.800;10.326;2023-05-10T07:50:12;12.00;99.90
32348;DHT22;18821;44.800;10.326;2023-05-10T07:52:38;12.00;99.90
32348;DHT22;18821;44.800;10.326;2023-05-10T07:55:04;11.90;99.90
32348;DHT22;18821;44.800;10.326;2023-05-10T07:57:31;12.00;99.90
32348;DHT22;18821;44.800;10.326;2023-05-10T07:59:56;12.00;99.90
32348;DHT22;18821;44.800;10.326;2023-05-10T08:02:22;12.00;99.90
32348;DHT22;18821;44.800;10.326;2023-05-10T08:04:48;11.80;99.90
32348;DHT22;18821;44.800;10.326;2023-05-10T08:07:14;11.90;99.90
32348;DHT22;18821;44.800;10.326;2023-05-10T08:09:40;11.90;99.90
32348;DHT22;18821;44.800;10.326;2023-05-10T08:12:06;11.80;99.90
32348;DHT22;18821;44.800;10.326;2023-05-10T08:14:32;11.80;99.90
32348;DHT22;18821;44.800;10.326;2023-05-10T08:16:57;11.70;99.90
32348;DHT22;18821;44.800;10.326;2023-05-10T08:19:23;11.70;99.90
32348;DHT22;18821;44.800;10.326;2023-05-10T08:21:49;11.70;99.90
32348;DHT22;18821;44.800;10.326;2023-05-10T08:24:15;11.80;99.90
32348;DHT22;18821;44.800;10.326;2023-05-10T08:26:41;11.70;99.90
32348;DHT22;18821;44.800;10.326;2023-05-10T08:29:07;11.70;99.90
32348;DHT22;18821;44.800;10.326;2023-05-10T08:31:33;11.80;99.90
32348;DHT22;18821;44.800;10.326;2023-05-10T08:33:58;11.70;99.90
32348;DHT22;18821;44.800;10.326;2023-05-10T08:36:24;11.70;99.90
32348;DHT22;18821;44.800;10.326;2023-05-10T08:38:51;11.60;99.90
32348;DHT22;18821;44.800;10.326;2023-05-10T08:41:19;11.50;99.90
32348;DHT22;18821;44.800;10.326;2023-05-10T08:43:47;11.50;99.90
32348;DHT22;18821;44.800;10.326;2023-05-10T08:46:18;11.40;99.90
32348;DHT22;18821;44.800;10.326;2023-05-10T08:48:48;11.40;99.90
32348;DHT22;18821;44.800;10.326;2023-05-10T08:51:17;11.50;99.90
32348;DHT22;18821;44.800;10.326;2023-05-10T08:53:45;11.50;99.90
32348;DHT22;18821;44.800;10.326;2023-05-10T08:56:11;11.40;99.90
32348;DHT22;18821;44.800;10.326;2023-05-10T08:58:37;11.40;99.90
32348;DHT22;18821;44.800;10.326;2023-05-10T09:01:05;11.50;99.90
32348;DHT22;18821;44.800;10.326;2023-05-10T09:03:31;11.50;99.90
32348;DHT22;18821;44.800;10.326;2023-05-10T09:05:58;11.50;99.90
32348;DHT22;18821;44.800;10.326;2023-05-10T09:08:24;11.50;99.90
32348;DHT22;18821;44.800;10.326;2023-05-10T09:10:51;11.50;99.90
32348;DHT22;18821;44.800;10.326;2023-05-10T09:13:19;11.50;99.90
32348;DHT22;18821;44.800;10.326;2023-05-10T09:15:48;11.60;99.90
32348;DHT22;18821;44.800;10.326;2023-05-10T09:18:14;11.60;99.90
32348;DHT22;18821;44.800;10.326;2023-05-10T09:20:40;11.70;99.90
32348;DHT22;18821;44.800;10.326;2023-05-10T09:23:06;11.70;99.90
32348;DHT22;18821;44.800;10.326;2023-05-10T09:25:33;11.70;99.90
32348;DHT22;18821;44.800;10.326;2023-05-10T09:27:59;11.80;99.90
32348;DHT22;18821;44.800;10.326;2023-05-10T09:30:30;11.90;99.90
32348;DHT22;18821;44.800;10.326;2023-05-10T09:32:57;11.90;99.90
32348;DHT22;18821;44.800;10.326;2023-05-10T09:35:25;11.90;99.90
32348;DHT22;18821;44.800;10.326;2023-05-10T09:37:59;11.90;99.90
32348;DHT22;18821;44.800;10.326;2023-05-10T09:40:27;12.10;99.90
32348;DHT22;18821;44.800;10.326;2023-05-10T09:43:01;12.10;99.90
32348;DHT22;18821;44.800;10.326;2023-05-10T09:45:29;12.00;99.90
32348;DHT22;18821;44.800;10.326;2023-05-10T09:47:56;12.00;99.90
32348;DHT22;18821;44.800;10.326;2023-05-10T09:50:23;11.90;99.90
32348;DHT22;18821;44.800;10.326;2023-05-10T09:52:54;12.10;99.90
32348;DHT22;18821;44.800;10.326;2023-05-10T09:55:25;12.20;99.90
32348;DHT22;18821;44.800;10.326;2023-05-10T09:57:59;12.20;99.90
32348;DHT22;18821;44.800;10.326;2023-05-10T10:00:26;12.20;99.90
32348;DHT22;18821;44.800;10.326;2023-05-10T10:02:59;12.20;99.90
32348;DHT22;18821;44.800;10.326;2023-05-10T10:05:33;12.10;99.90
32348;DHT22;18821;44.800;10.326;2023-05-10T10:08:02;12.10;99.90
32348;DHT22;18821;44.800;10.326;2023-05-10T10:10:29;12.20;99.90
32348;DHT22;18821;44.800;10.326;2023-05-10T10:12:56;12.10;99.90
32348;DHT22;18821;44.800;10.326;2023-05-10T10:15:22;12.00;99.90
32348;DHT22;18821;44.800;10.326;2023-05-10T10:17:49;11.90;99.90
32348;DHT22;18821;44.800;10.326;2023-05-10T10:20:16;12.00;99.90
32348;DHT22;18821;44.800;10.326;2023-05-10T10:22:42;12.00;99.90
32348;DHT22;18821;44.800;10.326;2023-05-10T10:25:15;11.90;99.90
32348;DHT22;18821;44.800;10.326;2023-05-10T10:35:35;11.70;99.90
32348;DHT22;18821;44.800;10.326;2023-05-10T10:38:01;11.70;99.90
32348;DHT22;18821;44.800;10.326;2023-05-10T10:40:28;11.60;99.90
32348;DHT22;18821;44.800;10.326;2023-05-10T10:42:56;11.80;99.90
32348;DHT22;18821;44.800;10.326;2023-05-10T10:45:23;11.90;99.90
32348;DHT22;18821;44.800;10.326;2023-05-10T10:48:19;12.00;99.90
32348;DHT22;18821;44.800;10.326;2023-05-10T10:50:45;12.10;99.90
32348;DHT22;18821;44.800;10.326;2023-05-10T10:53:12;12.20;99.90
32348;DHT22;18821;44.800;10.326;2023-05-10T10:55:48;12.20;99.90
32348;DHT22;18821;44.800;10.326;2023-05-10T10:58:30;12.30;99.90
32348;DHT22;18821;44.800;10.326;2023-05-10T11:01:16;12.30;99.90
32348;DHT22;18821;44.800;10.326;2023-05-10T11:06:34;12.20;99.90
32348;DHT22;18821;44.800;10.326;2023-05-10T11:09:08;12.30;99.90
32348;DHT22;18821;44.800;10.326;2023-05-10T11:11:35;12.40;99.90
32348;DHT22;18821;44.800;10.326;2023-05-10T11:14:06;12.60;99.90
32348;DHT22;18821;44.800;10.326;2023-05-10T11:16:43;12.70;99.90
32348;DHT22;18821;44.800;10.326;2023-05-10T11:19:11;12.70;99.90
32348;DHT22;18821;44.800;10.326;2023-05-10T11:24:31;12.50;99.90
32348;DHT22;18821;44.800;10.326;2023-05-10T11:26:57;12.60;99.90
32348;DHT22;18821;44.800;10.326;2023-05-10T11:29:23;12.50;96.30
32348;DHT22;18821;44.800;10.326;2023-05-10T11:31:51;12.60;98.50
32348;DHT22;18821;44.800;10.326;2023-05-10T11:34:31;12.70;99.80
32348;DHT22;18821;44.800;10.326;2023-05-10T11:36:59;12.80;99.90
32348;DHT22;18821;44.800;10.326;2023-05-10T11:39:30;13.00;99.90
32348;DHT22;18821;44.800;10.326;2023-05-10T11:41:57;13.00;99.90
32348;DHT22;18821;44.800;10.326;2023-05-10T11:44:31;13.10;99.70
32348;DHT22;18821;44.800;10.326;2023-05-10T11:47:00;13.10;98.10
32348;DHT22;18821;44.800;10.326;2023-05-10T11:49:26;13.10;97.90
32348;DHT22;18821;44.800;10.326;2023-05-10T11:51:52;13.20;98.40
32348;DHT22;18821;44.800;10.326;2023-05-10T11:54:18;13.20;98.50
32348;DHT22;18821;44.800;10.326;2023-05-10T11:56:44;13.30;97.90
32348;DHT22;18821;44.800;10.326;2023-05-10T11:59:13;13.30;98.20
32348;DHT22;18821;44.800;10.326;2023-05-10T12:01:39;13.30;97.40
32348;DHT22;18821;44.800;10.326;2023-05-10T12:04:05;13.30;98.30
32348;DHT22;18821;44.800;10.326;2023-05-10T12:06:34;13.30;98.50
32348;DHT22;18821;44.800;10.326;2023-05-10T12:09:06;13.30;98.60
32348;DHT22;18821;44.800;10.326;2023-05-10T12:11:37;13.40;98.20
32348;DHT22;18821;44.800;10.326;2023-05-10T12:14:04;13.40;96.50
32348;DHT22;18821;44.800;10.326;2023-05-10T12:16:31;13.40;96.20
32348;DHT22;18821;44.800;10.326;2023-05-10T12:18:58;13.40;97.40
32348;DHT22;18821;44.800;10.326;2023-05-10T12:21:25;13.40;96.20
32348;DHT22;18821;44.800;10.326;2023-05-10T12:23:59;13.40;96.40
32348;DHT22;18821;44.800;10.326;2023-05-10T12:26:26;13.30;93.00
32348;DHT22;18821;44.800;10.326;2023-05-10T12:28:54;13.30;96.60
32348;DHT22;18821;44.800;10.326;2023-05-10T12:31:20;13.20;95.10
32348;DHT22;18821;44.800;10.326;2023-05-10T12:33:46;13.30;95.10
32348;DHT22;18821;44.800;10.326;2023-05-10T12:36:14;13.30;97.40
32348;DHT22;18821;44.800;10.326;2023-05-10T12:38:46;13.50;99.00
32348;DHT22;18821;44.800;10.326;2023-05-10T12:41:17;13.40;95.80
32348;DHT22;18821;44.800;10.326;2023-05-10T12:43:43;13.40;96.40
32348;DHT22;18821;44.800;10.326;2023-05-10T12:46:11;13.60;97.60
32348;DHT22;18821;44.800;10.326;2023-05-10T12:48:38;13.60;95.70
32348;DHT22;18821;44.800;10.326;2023-05-10T12:51:05;13.60;94.80
32348;DHT22;18821;44.800;10.326;2023-05-10T12:53:31;13.70;94.60
32348;DHT22;18821;44.800;10.326;2023-05-10T12:55:57;13.90;94.10
32348;DHT22;18821;44.800;10.326;2023-05-10T12:58:23;14.00;92.80
32348;DHT22;18821;44.800;10.326;2023-05-10T13:00:49;14.00;90.70
32348;DHT22;18821;44.800;10.326;2023-05-10T13:03:17;13.90;91.60
32348;DHT22;18821;44.800;10.326;2023-05-10T13:05:43;13.90;90.00
32348;DHT22;18821;44.800;10.326;2023-05-10T13:08:09;13.70;90.30
32348;DHT22;18821;44.800;10.326;2023-05-10T13:10:35;13.60;94.50
32348;DHT22;18821;44.800;10.326;2023-05-10T13:13:01;13.70;95.50
32348;DHT22;18821;44.800;10.326;2023-05-10T13:15:27;13.70;96.50
32348;DHT22;18821;44.800;10.326;2023-05-10T13:17:53;13.80;96.90
32348;DHT22;18821;44.800;10.326;2023-05-10T13:20:19;13.90;97.70
32348;DHT22;18821;44.800;10.326;2023-05-10T13:22:45;14.00;97.40
32348;DHT22;18821;44.800;10.326;2023-05-10T13:25:12;13.90;96.20
32348;DHT22;18821;44.800;10.326;2023-05-10T13:27:39;13.90;98.40
32348;DHT22;18821;44.800;10.326;2023-05-10T13:30:07;13.60;95.90
32348;DHT22;18821;44.800;10.326;2023-05-10T13:32:34;13.50;99.50
32348;DHT22;18821;44.800;10.326;2023-05-10T13:35:00;13.60;99.90
32348;DHT22;18821;44.800;10.326;2023-05-10T13:37:26;13.60;99.00
32348;DHT22;18821;44.800;10.326;2023-05-10T13:39:51;13.50;95.80
32348;DHT22;18821;44.800;10.326;2023-05-10T13:42:18;13.70;96.30
32348;DHT22;18821;44.800;10.326;2023-05-10T13:44:44;13.80;95.30
32348;DHT22;18821;44.800;10.326;2023-05-10T13:47:09;13.90;93.00
32348;DHT22;18821;44.800;10.326;2023-05-10T13:49:36;13.80;91.50
32348;DHT22;18821;44.800;10.326;2023-05-10T13:52:02;13.90;92.00
32348;DHT22;18821;44.800;10.326;2023-05-10T13:54:36;14.00;93.90
32348;DHT22;18821;44.800;10.326;2023-05-10T13:57:02;14.00;90.80
32348;DHT22;18821;44.800;10.326;2023-05-10T13:59:29;14.00;91.50
32348;DHT22;18821;44.800;10.326;2023-05-10T14:01:57;13.80;90.00
32348;DHT22;18821;44.800;10.326;2023-05-10T14:04:24;13.60;92.30
32348;DHT22;18821;44.800;10.326;2023-05-10T14:06:49;13.70;95.50
32348;DHT22;18821;44.800;10.326;2023-05-10T14:09:16;13.80;93.70
32348;DHT22;18821;44.800;10.326;2023-05-10T14:11:42;13.80;91.90
32348;DHT22;18821;44.800;10.326;2023-05-10T14:14:09;13.70;93.00
32348;DHT22;18821;44.800;10.326;2023-05-10T14:16:35;13.60;89.70
32348;DHT22;18821;44.800;10.326;2023-05-10T14:19:01;13.60;93.90
32348;DHT22;18821;44.800;10.326;2023-05-10T14:21:27;13.70;94.90
32348;DHT22;18821;44.800;10.326;2023-05-10T14:23:55;13.60;91.30
32348;DHT22;18821;44.800;10.326;2023-05-10T14:26:21;13.60;93.90
32348;DHT22;18821;44.800;10.326;2023-05-10T14:28:47;13.70;96.30
32348;DHT22;18821;44.800;10.326;2023-05-10T14:31:13;13.70;94.10
32348;DHT22;18821;44.800;10.326;2023-05-10T14:33:40;13.70;93.70
32348;DHT22;18821;44.800;10.326;2023-05-10T14:36:07;13.80;91.80
32348;DHT22;18821;44.800;10.326;2023-05-10T14:38:33;13.80;88.60
32348;DHT22;18821;44.800;10.326;2023-05-10T14:40:58;13.80;88.50
32348;DHT22;18821;44.800;10.326;2023-05-10T14:43:24;13.90;89.30
32348;DHT22;18821;44.800;10.326;2023-05-10T14:45:50;14.10;92.80
32348;DHT22;18821;44.800;10.326;2023-05-10T14:48:16;14.00;87.60
32348;DHT22;18821;44.800;10.326;2023-05-10T14:50:43;13.90;86.30
32348;DHT22;18821;44.800;10.326;2023-05-10T14:53:09;13.90;88.10
32348;DHT22;18821;44.800;10.326;2023-05-10T14:55:35;14.00;90.90
32348;DHT22;18821;44.800;10.326;2023-05-10T14:58:02;13.80;84.90
32348;DHT22;18821;44.800;10.326;2023-05-10T15:00:29;13.70;93.80
32348;DHT22;18821;44.800;10.326;2023-05-10T15:02:55;13.80;94.30
32348;DHT22;18821;44.800;10.326;2023-05-10T15:05:21;13.80;94.40
32348;DHT22;18821;44.800;10.326;2023-05-10T15:07:47;13.80;95.40
32348;DHT22;18821;44.800;10.326;2023-05-10T15:10:13;13.70;90.90
32348;DHT22;18821;44.800;10.326;2023-05-10T15:12:39;13.70;93.20
32348;DHT22;18821;44.800;10.326;2023-05-10T15:15:06;13.70;92.60
32348;DHT22;18821;44.800;10.326;2023-05-10T15:17:33;13.50;95.50
32348;DHT22;18821;44.800;10.326;2023-05-10T15:19:59;13.50;99.80
32348;DHT22;18821;44.800;10.326;2023-05-10T15:22:28;13.40;99.90
32348;DHT22;18821;44.800;10.326;2023-05-10T15:24:54;13.40;99.90
32348;DHT22;18821;44.800;10.326;2023-05-10T15:27:20;13.50;99.90
32348;DHT22;18821;44.800;10.326;2023-05-10T15:29:46;13.50;99.90
32348;DHT22;18821;44.800;10.326;2023-05-10T15:32:12;13.70;99.90
32348;DHT22;18821;44.800;10.326;2023-05-10T15:34:38;13.70;99.90
32348;DHT22;18821;44.800;10.326;2023-05-10T15:37:03;13.60;99.00
32348;DHT22;18821;44.800;10.326;2023-05-10T15:39:30;13.60;99.90
32348;DHT22;18821;44.800;10.326;2023-05-10T15:41:55;13.60;99.90
32348;DHT22;18821;44.800;10.326;2023-05-10T15:44:21;13.60;99.90
32348;DHT22;18821;44.800;10.326;2023-05-10T15:46:47;13.50;99.30